createdAt,value
2019-01-19T00:00:33.694Z,5.13
2019-01-19T00:03:41.321Z,4.97
2019-01-19T00:10:38.320Z,5.20
2019-01-19T00:17:23.386Z,4.50
2019-01-19T00:20:32.592Z,4.30
2019-01-19T00:27:28.950Z,5.27
2019-01-19T00:34:34.210Z,4.87
2019-01-19T00:37:27.581Z,4.93
2019-01-19T00:40:35.586Z,5.77
2019-01-19T00:43:46.369Z,5.07
2019-01-19T00:47:02.865Z,5.50
2019-01-19T00:49:55.716Z,4.93
2019-01-19T00:52:57.410Z,5.67
2019-01-19T00:56:04.404Z,5.37
2019-01-19T00:59:20.757Z,5.13
2019-01-19T01:02:34.405Z,4.67
2019-01-19T01:05:41.890Z,5.23
2019-01-19T01:09:12.629Z,5.17
2019-01-19T01:11:54.625Z,5.33
2019-01-19T01:15:16.763Z,5.80
2019-01-19T01:18:06.430Z,4.90
2019-01-19T01:21:03.693Z,5.63
2019-01-19T01:24:19.894Z,5.50
2019-01-19T01:27:10.409Z,5.60
2019-01-19T01:30:20.410Z,5.63
2019-01-19T01:33:31.629Z,6.30
2019-01-19T01:36:27.753Z,5.63
2019-01-19T01:39:44.768Z,5.53
2019-01-19T01:42:45.429Z,6.10
2019-01-19T01:45:40.916Z,6.03
2019-01-19T01:48:47.413Z,5.93
2019-01-19T01:51:59.433Z,6.93
2019-01-19T01:54:41.996Z,5.43
2019-01-19T01:57:25.407Z,6.80
2019-01-19T02:00:37.409Z,6.17
2019-01-19T02:03:39.421Z,5.90
2019-01-19T02:06:42.688Z,6.03
2019-01-19T02:09:56.666Z,6.00
2019-01-19T02:13:02.417Z,6.87
2019-01-19T02:19:56.081Z,7.10
2019-01-19T02:22:49.958Z,6.97
2019-01-19T02:25:54.409Z,7.53
2019-01-19T02:28:57.410Z,7.80
2019-01-19T02:31:53.907Z,7.17
2019-01-19T02:35:01.097Z,6.73
2019-01-19T02:37:58.050Z,7.77
2019-01-19T02:41:27.760Z,7.43
2019-01-19T02:44:23.883Z,6.57
2019-01-19T02:47:54.827Z,7.20
2019-01-19T02:50:55.870Z,6.40
2019-01-19T02:57:33.418Z,6.27
2019-01-19T03:03:57.418Z,6.80
2019-01-19T03:06:43.484Z,7.33
2019-01-19T03:09:47.418Z,7.13
2019-01-19T03:12:55.426Z,7.63
2019-01-19T03:16:04.016Z,7.93
2019-01-19T03:19:03.625Z,7.43
2019-01-19T03:22:16.955Z,8.70
2019-01-19T03:25:25.987Z,8.13
2019-01-19T03:28:30.432Z,7.77
2019-01-19T03:31:51.459Z,7.33
2019-01-19T03:34:47.960Z,7.80
2019-01-19T03:37:45.932Z,7.53
2019-01-19T03:40:55.504Z,8.30
2019-01-19T03:47:22.528Z,8.50
2019-01-19T03:50:43.586Z,7.50
2019-01-19T03:53:56.271Z,7.37
2019-01-19T03:57:16.156Z,7.27
2019-01-19T04:00:26.209Z,7.60
2019-01-19T04:03:26.744Z,7.77
2019-01-19T04:06:33.211Z,7.23
2019-01-19T04:09:27.905Z,7.83
2019-01-19T04:12:45.128Z,7.13
2019-01-19T04:15:54.159Z,6.10
2019-01-19T04:19:03.393Z,6.47
2019-01-19T04:22:05.255Z,7.03
2019-01-19T04:24:56.262Z,6.50
2019-01-19T04:27:33.343Z,6.43
2019-01-19T04:30:09.198Z,6.10
2019-01-19T04:32:45.666Z,6.50
2019-01-19T04:35:21.516Z,6.53
2019-01-19T04:37:58.395Z,6.13
2019-01-19T04:40:33.921Z,6.93
2019-01-19T04:43:10.509Z,6.30
2019-01-19T04:45:50.260Z,6.27
2019-01-19T04:48:28.153Z,5.50
2019-01-19T04:51:05.960Z,6.30
2019-01-19T04:53:41.956Z,6.47
2019-01-19T04:56:18.375Z,6.03
2019-01-19T04:58:53.409Z,5.67
2019-01-19T05:01:29.464Z,6.20
2019-01-19T05:04:07.006Z,6.57
2019-01-19T05:06:43.221Z,6.10
2019-01-19T05:09:22.349Z,6.30
2019-01-19T05:12:00.662Z,6.30
2019-01-19T05:14:37.945Z,6.27
2019-01-19T05:17:13.387Z,5.63
2019-01-19T05:19:52.313Z,5.77
2019-01-19T05:22:30.627Z,5.93
2019-01-19T05:25:10.690Z,5.27
2019-01-19T05:27:47.446Z,5.37
2019-01-19T05:30:26.037Z,5.33
2019-01-19T05:33:02.063Z,5.93
2019-01-19T05:35:40.031Z,5.40
2019-01-19T05:38:16.040Z,4.60
2019-01-19T05:40:52.448Z,5.07
2019-01-19T05:43:33.947Z,5.90
2019-01-19T05:46:21.346Z,4.93
2019-01-19T05:48:55.576Z,5.87
2019-01-19T05:51:32.653Z,4.67
2019-01-19T05:54:09.322Z,4.90
2019-01-19T05:56:46.617Z,5.30
2019-01-19T05:59:21.241Z,5.43
2019-01-19T06:01:58.723Z,5.37
2019-01-19T06:04:35.031Z,5.60
2019-01-19T06:07:11.252Z,5.47
2019-01-19T06:09:47.511Z,5.70
2019-01-19T06:12:24.591Z,6.47
2019-01-19T06:14:59.421Z,6.77
2019-01-19T06:17:37.734Z,6.37
2019-01-19T06:20:13.993Z,5.97
2019-01-19T06:22:50.254Z,6.67
2019-01-19T06:25:27.337Z,5.90
2019-01-19T06:28:03.394Z,5.73
2019-01-19T06:30:42.935Z,6.10
2019-01-19T06:33:18.039Z,6.53
2019-01-19T06:35:57.513Z,5.27
2019-01-19T06:38:33.563Z,6.30
2019-01-19T06:41:10.445Z,6.10
2019-01-19T06:43:51.038Z,6.23
2019-01-19T06:46:26.242Z,5.70
2019-01-19T06:49:12.860Z,5.57
2019-01-19T06:51:49.621Z,5.27
2019-01-19T06:54:31.003Z,6.03
2019-01-19T06:57:17.303Z,5.67
2019-01-19T06:59:55.406Z,5.97
2019-01-19T07:02:40.065Z,5.80
2019-01-19T07:05:17.763Z,5.83
2019-01-19T07:08:05.286Z,5.40
2019-01-19T07:10:49.129Z,6.43
2019-01-19T07:13:30.315Z,5.33
2019-01-19T07:22:35.997Z,6.03
2019-01-19T07:25:17.583Z,6.20
2019-01-19T07:28:23.476Z,5.60
2019-01-19T07:31:02.158Z,5.07
2019-01-19T07:33:40.263Z,5.53
2019-01-19T07:36:17.757Z,5.87
2019-01-19T07:39:00.672Z,5.90
2019-01-19T07:44:40.844Z,5.53
2019-01-19T07:50:40.063Z,6.87
2019-01-19T07:56:27.208Z,8.40
2019-01-19T07:59:30.495Z,6.37
2019-01-19T08:02:10.356Z,5.70
2019-01-19T08:08:20.284Z,5.77
2019-01-19T08:14:41.037Z,6.47
2019-01-19T08:20:24.691Z,6.57
2019-01-19T08:26:33.535Z,5.80
2019-01-19T08:32:52.009Z,5.93
2019-01-19T08:35:37.395Z,5.83
2019-01-19T08:44:44.912Z,6.50
2019-01-19T08:50:57.931Z,6.33
2019-01-19T08:56:43.966Z,6.27
2019-01-19T09:03:14.935Z,6.33
2019-01-19T09:05:53.042Z,7.10
2019-01-19T09:11:41.811Z,6.17
2019-01-19T09:14:22.781Z,6.53
2019-01-19T09:17:00.393Z,5.80
2019-01-19T09:25:44.766Z,7.07
2019-01-19T09:28:21.462Z,6.53
2019-01-19T09:34:25.984Z,6.60
2019-01-19T09:40:29.912Z,5.67
2019-01-19T09:43:06.991Z,6.23
2019-01-19T09:45:42.845Z,7.40
2019-01-19T09:51:22.452Z,6.43
2019-01-19T09:57:14.864Z,6.93
2019-01-19T09:59:48.672Z,6.13
2019-01-19T10:02:25.749Z,6.90
2019-01-19T10:05:02.460Z,6.67
2019-01-19T10:07:37.658Z,6.03
2019-01-19T10:10:13.717Z,6.63
2019-01-19T10:12:48.956Z,6.80
2019-01-19T10:15:24.471Z,7.67
2019-01-19T10:18:00.045Z,6.60
2019-01-19T10:24:16.877Z,6.50
2019-01-19T10:26:50.683Z,6.63
2019-01-19T10:29:26.948Z,6.20
2019-01-19T10:32:03.003Z,6.93
2019-01-19T10:34:56.673Z,7.47
2019-01-19T10:37:33.959Z,7.23
2019-01-19T10:40:10.466Z,7.23
2019-01-19T10:42:48.122Z,7.50
2019-01-19T10:45:26.843Z,6.20
2019-01-19T10:48:03.923Z,8.50
2019-01-19T10:50:38.752Z,7.10
2019-01-19T10:53:14.810Z,7.10
2019-01-19T10:55:50.491Z,7.23
2019-01-19T11:01:54.803Z,7.60
2019-01-19T11:04:31.459Z,7.60
2019-01-19T11:07:06.706Z,7.73
2019-01-19T11:09:41.946Z,7.97
2019-01-19T11:12:17.853Z,6.40
2019-01-19T11:14:59.798Z,6.87
2019-01-19T11:17:34.477Z,7.37
2019-01-19T11:20:09.043Z,7.63
2019-01-19T11:22:45.714Z,6.60
2019-01-19T11:28:49.851Z,5.93
2019-01-19T11:31:25.531Z,7.33
2019-01-19T11:33:59.538Z,7.63
2019-01-19T11:36:33.721Z,7.87
2019-01-19T11:39:12.443Z,7.20
2019-01-19T11:41:48.091Z,8.07
2019-01-19T11:44:26.195Z,8.57
2019-01-19T11:47:03.080Z,7.10
2019-01-19T11:49:38.726Z,8.00
2019-01-19T11:52:15.799Z,7.57
2019-01-19T11:54:51.856Z,7.30
2019-01-19T11:57:27.535Z,7.17
2019-01-19T12:00:01.927Z,7.63
2019-01-19T12:02:37.985Z,7.50
2019-01-19T12:05:13.511Z,7.93
2019-01-19T12:07:53.081Z,9.20
2019-01-19T12:10:27.520Z,7.80
2019-01-19T12:13:05.522Z,7.60
2019-01-19T12:15:45.035Z,7.60
2019-01-19T12:18:26.831Z,8.50
2019-01-19T12:21:05.951Z,8.33
2019-01-19T12:23:41.516Z,7.53
2019-01-19T12:26:16.019Z,8.20
2019-01-19T12:28:51.051Z,8.40
2019-01-19T12:31:27.932Z,8.50
2019-01-19T12:34:04.802Z,8.70
2019-01-19T12:36:40.517Z,8.20
2019-01-19T12:39:15.896Z,7.67
2019-01-19T12:41:53.799Z,8.13
2019-01-19T12:44:29.516Z,8.77
2019-01-19T12:47:04.886Z,8.67
2019-01-19T12:49:43.518Z,8.43
2019-01-19T12:52:18.845Z,8.60
2019-01-19T12:54:54.519Z,7.87
2019-01-19T12:57:30.524Z,9.13
2019-01-19T13:00:06.521Z,7.87
2019-01-19T13:02:41.521Z,8.93
2019-01-19T13:05:20.975Z,9.13
2019-01-19T13:11:57.540Z,8.13
2019-01-19T13:14:33.730Z,8.53
2019-01-19T13:17:45.012Z,8.83
2019-01-19T13:21:16.981Z,8.47
2019-01-19T13:27:47.739Z,8.57
2019-01-19T13:30:53.521Z,9.40
2019-01-19T13:37:25.524Z,9.33
2019-01-19T13:43:47.522Z,8.80
2019-01-19T13:46:49.530Z,8.57
2019-01-19T13:50:12.048Z,10.00
2019-01-19T13:53:09.521Z,9.30
2019-01-19T14:00:09.524Z,8.43
2019-01-19T14:03:24.526Z,9.60
2019-01-19T14:09:59.523Z,9.60
2019-01-19T14:16:27.981Z,9.93
2019-01-19T14:19:27.999Z,9.50
2019-01-19T14:22:41.945Z,9.17
2019-01-19T14:25:52.523Z,9.77
2019-01-19T14:32:28.083Z,10.80
2019-01-19T14:35:48.993Z,9.70
2019-01-19T14:39:01.095Z,9.17
2019-01-19T14:42:13.816Z,10.93
2019-01-19T14:45:17.551Z,14.07
2019-01-19T14:48:25.726Z,10.67
2019-01-19T14:51:33.735Z,9.53
2019-01-19T14:54:38.053Z,9.67
2019-01-19T14:57:39.539Z,9.53
2019-01-19T15:00:48.742Z,9.27
2019-01-19T15:03:28.525Z,10.57
2019-01-19T15:06:50.427Z,13.87
2019-01-19T15:09:45.932Z,15.00
2019-01-19T15:12:41.854Z,13.97
2019-01-19T15:15:59.077Z,14.30
2019-01-19T15:19:21.010Z,12.63
2019-01-19T15:25:07.735Z,10.80
2019-01-19T15:31:47.918Z,10.47
2019-01-19T15:35:05.753Z,10.40
2019-01-19T15:38:04.953Z,10.23
2019-01-19T15:41:12.343Z,9.03
2019-01-19T15:44:27.545Z,9.77
2019-01-19T15:47:23.031Z,9.73
2019-01-19T15:50:49.880Z,10.60
2019-01-19T15:54:06.532Z,11.00
2019-01-19T15:57:37.241Z,11.70
2019-01-19T16:00:57.931Z,11.80
2019-01-19T16:04:02.532Z,9.73
2019-01-19T16:07:19.033Z,9.30
2019-01-19T16:10:43.043Z,10.43
2019-01-19T16:14:06.206Z,10.17
2019-01-19T16:17:28.533Z,12.83
2019-01-19T16:20:48.842Z,12.57
2019-01-19T16:23:58.092Z,15.33
2019-01-19T16:27:12.720Z,13.33
2019-01-19T16:30:34.363Z,12.60
2019-01-19T16:33:46.788Z,14.03
2019-01-19T16:36:52.426Z,14.20
2019-01-19T16:40:17.635Z,12.87
2019-01-19T16:43:42.898Z,12.83
2019-01-19T16:46:49.124Z,11.17
2019-01-19T16:50:00.498Z,11.27
2019-01-19T16:53:14.883Z,11.77
2019-01-19T16:56:37.680Z,11.37
2019-01-19T16:59:40.289Z,11.20
2019-01-19T17:03:00.784Z,10.83
2019-01-19T17:09:54.173Z,10.93
2019-01-19T17:19:45.736Z,10.37
2019-01-19T17:27:01.857Z,11.13
2019-01-19T17:34:00.886Z,10.57
2019-01-19T17:37:11.751Z,13.07
2019-01-19T17:43:19.161Z,15.63
2019-01-19T17:54:09.196Z,37.57
2019-01-19T17:57:27.240Z,36.70
2019-01-19T18:07:46.144Z,20.63
2019-01-19T18:14:56.548Z,16.33
2019-01-19T18:24:32.531Z,11.23
2019-01-19T18:27:41.786Z,11.77
2019-01-19T18:31:16.551Z,11.07
2019-01-19T19:08:01.476Z,10.33
2019-01-19T19:24:16.646Z,9.50
2019-01-19T19:45:19.123Z,9.13
2019-01-19T19:52:13.957Z,12.03
2019-01-19T19:58:38.250Z,11.00
2019-01-19T20:07:56.959Z,11.07
2019-01-19T20:18:05.004Z,12.63
2019-01-19T20:24:28.178Z,12.07
2019-01-19T20:27:11.402Z,13.87
2019-01-19T20:33:26.389Z,16.87
2019-01-19T20:36:09.572Z,13.93
2019-01-19T20:45:27.899Z,26.93
2019-01-19T20:51:18.221Z,30.87
2019-01-19T20:53:55.189Z,31.07
2019-01-19T20:56:36.980Z,36.63
2019-01-19T20:59:24.917Z,34.83
2019-01-19T21:05:25.979Z,40.03
2019-01-19T21:11:15.162Z,26.90
2019-01-19T21:20:45.325Z,13.40
2019-01-19T21:23:30.192Z,10.50
2019-01-19T21:26:19.359Z,9.20
2019-01-19T21:32:26.970Z,9.40
2019-01-19T21:35:06.562Z,9.37
2019-01-19T21:38:30.286Z,9.90
2019-01-19T21:44:59.199Z,8.23
2019-01-19T21:47:40.378Z,9.40
2019-01-19T21:50:28.930Z,8.73
2019-01-19T21:53:17.274Z,10.20
2019-01-19T22:05:21.684Z,17.53
2019-01-19T22:08:19.417Z,14.90
2019-01-19T22:11:15.580Z,16.17
2019-01-19T22:20:06.579Z,9.90
2019-01-19T22:22:53.298Z,9.67
2019-01-19T22:45:11.869Z,10.23
2019-01-19T22:51:44.061Z,9.93
2019-01-19T22:54:31.792Z,10.03
2019-01-19T22:57:56.506Z,9.57
2019-01-19T23:01:12.994Z,10.37
2019-01-19T23:11:13.376Z,9.87
2019-01-19T23:20:36.062Z,10.97
2019-01-19T23:26:26.058Z,12.17
2019-01-19T23:29:11.575Z,10.47
2019-01-19T23:32:00.814Z,18.27
2019-01-19T23:38:16.301Z,12.57
2019-01-19T23:41:09.400Z,10.27
2019-01-19T23:43:51.151Z,9.80
2019-01-19T23:46:42.978Z,10.30
2019-01-19T23:49:22.107Z,10.30
2019-01-19T23:52:13.115Z,10.30
2019-01-19T23:54:50.197Z,10.17
2019-01-19T23:57:55.336Z,11.20
